<?xml version='1.0' encoding='UTF-8'?><gpx version="1.1" creator="JPX - https://github.com/jenetics/jpx" xmlns="http://www.topografix.com/GPX/1/1"><trk><trkseg><trkpt lat="39.6607156" lon="8.542791"><ele>210.0</ele><time>2026-04-26T11:09:12.932Z</time></trkpt><trkpt lat="39.6606825" lon="8.5427099"><ele>210.0</ele><time>2026-04-26T11:09:15.932Z</time></trkpt><trkpt lat="39.6606581" lon="8.5426056"><ele>210.0</ele><time>2026-04-26T11:09:18.932Z</time></trkpt><trkpt lat="39.6606394" lon="8.5424981"><ele>210.0</ele><time>2026-04-26T11:09:21.931Z</time></trkpt><trkpt lat="39.6606086" lon="8.5424128"><ele>210.0</ele><time>2026-04-26T11:09:24.932Z</time></trkpt><trkpt lat="39.6605493" lon="8.5423599"><ele>210.0</ele><time>2026-04-26T11:09:27.932Z</time></trkpt><trkpt lat="39.6604625" lon="8.5423596"><ele>210.0</ele><time>2026-04-26T11:09:30.931Z</time></trkpt><trkpt lat="39.6603983" lon="8.5423895"><ele>210.0</ele><time>2026-04-26T11:09:32.932Z</time></trkpt><trkpt lat="39.6603364" lon="8.5424334"><ele>210.0</ele><time>2026-04-26T11:09:34.932Z</time></trkpt><trkpt lat="39.6602795" lon="8.5424894"><ele>210.0</ele><time>2026-04-26T11:09:36.931Z</time></trkpt><trkpt lat="39.6602251" lon="8.5425445"><ele>210.0</ele><time>2026-04-26T11:09:38.932Z</time></trkpt><trkpt lat="39.6601744" lon="8.5426051"><ele>210.0</ele><time>2026-04-26T11:09:40.932Z</time></trkpt><trkpt lat="39.6601239" lon="8.5426656"><ele>210.0</ele><time>2026-04-26T11:09:42.932Z</time></trkpt><trkpt lat="39.6600705" lon="8.5427267"><ele>210.71428571428572</ele><time>2026-04-26T11:09:44.932Z</time></trkpt><trkpt lat="39.6600155" lon="8.5427857"><ele>211.42857142857144</ele><time>2026-04-26T11:09:46.932Z</time></trkpt><trkpt lat="39.65996" lon="8.5428342"><ele>212.14285714285714</ele><time>2026-04-26T11:09:48.932Z</time></trkpt><trkpt lat="39.6599042" lon="8.5428734"><ele>212.85714285714286</ele><time>2026-04-26T11:09:50.931Z</time></trkpt><trkpt lat="39.6598435" lon="8.5429018"><ele>213.57142857142858</ele><time>2026-04-26T11:09:52.932Z</time></trkpt><trkpt lat="39.6597506" lon="8.5429229"><ele>214.28571428571428</ele><time>2026-04-26T11:09:55.932Z</time></trkpt><trkpt lat="39.6596841" lon="8.5429321"><ele>215.0</ele><time>2026-04-26T11:09:57.931Z</time></trkpt><trkpt lat="39.6596126" lon="8.5429392"><ele>215.50000000000003</ele><time>2026-04-26T11:09:59.932Z</time></trkpt><trkpt lat="39.6595388" lon="8.5429416"><ele>216.0</ele><time>2026-04-26T11:10:01.932Z</time></trkpt><trkpt lat="39.6594679" lon="8.5429373"><ele>216.5</ele><time>2026-04-26T11:10:03.933Z</time></trkpt><trkpt lat="39.6594002" lon="8.5429242"><ele>217.0</ele><time>2026-04-26T11:10:05.931Z</time></trkpt><trkpt lat="39.6593391" lon="8.5428954"><ele>217.50000000000003</ele><time>2026-04-26T11:10:07.933Z</time></trkpt><trkpt lat="39.6592622" lon="8.5428305"><ele>218.0</ele><time>2026-04-26T11:10:10.932Z</time></trkpt><trkpt lat="39.6591981" lon="8.5427431"><ele>218.0</ele><time>2026-04-26T11:10:13.932Z</time></trkpt><trkpt lat="39.6591618" lon="8.5426722"><ele>218.0</ele><time>2026-04-26T11:10:15.932Z</time></trkpt><trkpt lat="39.6591258" lon="8.5425981"><ele>218.0</ele><time>2026-04-26T11:10:17.932Z</time></trkpt><trkpt lat="39.6590891" lon="8.5425223"><ele>218.0</ele><time>2026-04-26T11:10:19.932Z</time></trkpt><trkpt lat="39.6590509" lon="8.5424487"><ele>218.0</ele><time>2026-04-26T11:10:21.933Z</time></trkpt><trkpt lat="39.6590097" lon="8.5423751"><ele>218.0</ele><time>2026-04-26T11:10:23.931Z</time></trkpt><trkpt lat="39.6589483" lon="8.5422833"><ele>218.0</ele><time>2026-04-26T11:10:26.933Z</time></trkpt><trkpt lat="39.6588948" lon="8.5422221"><ele>218.0</ele><time>2026-04-26T11:10:28.933Z</time></trkpt><trkpt lat="39.6588344" lon="8.5421678"><ele>218.0</ele><time>2026-04-26T11:10:30.932Z</time></trkpt><trkpt lat="39.6587724" lon="8.5421179"><ele>218.0</ele><time>2026-04-26T11:10:32.932Z</time></trkpt><trkpt lat="39.6587098" lon="8.5420697"><ele>218.0</ele><time>2026-04-26T11:10:34.933Z</time></trkpt><trkpt lat="39.6586463" lon="8.5420253"><ele>218.0</ele><time>2026-04-26T11:10:36.933Z</time></trkpt><trkpt lat="39.6585801" lon="8.5419736"><ele>218.0</ele><time>2026-04-26T11:10:38.932Z</time></trkpt><trkpt lat="39.6585101" lon="8.5419235"><ele>218.0</ele><time>2026-04-26T11:10:40.933Z</time></trkpt><trkpt lat="39.6584412" lon="8.5418789"><ele>218.33333333333334</ele><time>2026-04-26T11:10:42.932Z</time></trkpt><trkpt lat="39.6583735" lon="8.5418246"><ele>218.66666666666669</ele><time>2026-04-26T11:10:44.933Z</time></trkpt><trkpt lat="39.6582943" lon="8.5417821"><ele>219.0</ele><time>2026-04-26T11:10:47.932Z</time></trkpt><trkpt lat="39.6582112" lon="8.5417909"><ele>219.33333333333331</ele><time>2026-04-26T11:10:50.931Z</time></trkpt><trkpt lat="39.6581594" lon="8.5418708"><ele>219.66666666666666</ele><time>2026-04-26T11:10:53.931Z</time></trkpt><trkpt lat="39.6581668" lon="8.5419667"><ele>220.0</ele><time>2026-04-26T11:10:55.932Z</time></trkpt><trkpt lat="39.658193" lon="8.5420703"><ele>219.99999999999997</ele><time>2026-04-26T11:10:57.934Z</time></trkpt><trkpt lat="39.6582214" lon="8.5421797"><ele>220.0</ele><time>2026-04-26T11:10:59.932Z</time></trkpt><trkpt lat="39.6582393" lon="8.5422831"><ele>220.0</ele><time>2026-04-26T11:11:01.931Z</time></trkpt><trkpt lat="39.6582503" lon="8.5423829"><ele>220.0</ele><time>2026-04-26T11:11:03.932Z</time></trkpt><trkpt lat="39.6582521" lon="8.5424765"><ele>219.99999999999997</ele><time>2026-04-26T11:11:05.933Z</time></trkpt><trkpt lat="39.6582418" lon="8.5425689"><ele>220.0</ele><time>2026-04-26T11:11:07.932Z</time></trkpt><trkpt lat="39.65822" lon="8.5426583"><ele>219.99999999999997</ele><time>2026-04-26T11:11:09.931Z</time></trkpt><trkpt lat="39.6581891" lon="8.542747"><ele>220.0</ele><time>2026-04-26T11:11:11.932Z</time></trkpt><trkpt lat="39.6581531" lon="8.5428297"><ele>220.0</ele><time>2026-04-26T11:11:13.932Z</time></trkpt><trkpt lat="39.6581068" lon="8.5429052"><ele>220.0</ele><time>2026-04-26T11:11:15.933Z</time></trkpt><trkpt lat="39.6580537" lon="8.5429781"><ele>219.99999999999997</ele><time>2026-04-26T11:11:17.931Z</time></trkpt><trkpt lat="39.6580011" lon="8.5430486"><ele>220.0</ele><time>2026-04-26T11:11:19.933Z</time></trkpt><trkpt lat="39.6579419" lon="8.5431143"><ele>218.99999999999997</ele><time>2026-04-26T11:11:21.931Z</time></trkpt><trkpt lat="39.6578838" lon="8.5431765"><ele>218.0</ele><time>2026-04-26T11:11:23.932Z</time></trkpt><trkpt lat="39.657839" lon="8.543235"><ele>217.0</ele><time>2026-04-26T11:11:25.932Z</time></trkpt><trkpt lat="39.6578019" lon="8.543343"><ele>216.0</ele><time>2026-04-26T11:11:28.932Z</time></trkpt><trkpt lat="39.6578102" lon="8.5434286"><ele>215.0</ele><time>2026-04-26T11:11:30.931Z</time></trkpt><trkpt lat="39.6578443" lon="8.5435105"><ele>213.99999999999997</ele><time>2026-04-26T11:11:32.932Z</time></trkpt><trkpt lat="39.657883" lon="8.5435894"><ele>213.0</ele><time>2026-04-26T11:11:34.932Z</time></trkpt><trkpt lat="39.6579181" lon="8.5436739"><ele>212.83333333333334</ele><time>2026-04-26T11:11:36.931Z</time></trkpt><trkpt lat="39.6579366" lon="8.5437686"><ele>212.66666666666669</ele><time>2026-04-26T11:11:38.933Z</time></trkpt><trkpt lat="39.657942" lon="8.5438676"><ele>212.5</ele><time>2026-04-26T11:11:40.932Z</time></trkpt><trkpt lat="39.6579339" lon="8.5439641"><ele>212.33333333333334</ele><time>2026-04-26T11:11:42.931Z</time></trkpt><trkpt lat="39.6579245" lon="8.5440629"><ele>212.16666666666669</ele><time>2026-04-26T11:11:44.933Z</time></trkpt><trkpt lat="39.6579204" lon="8.5441619"><ele>212.0</ele><time>2026-04-26T11:11:46.932Z</time></trkpt><trkpt lat="39.657923" lon="8.5442646"><ele>212.00000000000003</ele><time>2026-04-26T11:11:48.932Z</time></trkpt><trkpt lat="39.6579337" lon="8.5443643"><ele>212.0</ele><time>2026-04-26T11:11:50.931Z</time></trkpt><trkpt lat="39.6579483" lon="8.5444663"><ele>212.0</ele><time>2026-04-26T11:11:52.932Z</time></trkpt><trkpt lat="39.6579538" lon="8.5445712"><ele>212.0</ele><time>2026-04-26T11:11:54.932Z</time></trkpt><trkpt lat="39.6579493" lon="8.5446723"><ele>212.00000000000003</ele><time>2026-04-26T11:11:56.932Z</time></trkpt><trkpt lat="39.6579304" lon="8.5447757"><ele>212.0</ele><time>2026-04-26T11:11:58.931Z</time></trkpt><trkpt lat="39.6578941" lon="8.5448726"><ele>211.16666666666669</ele><time>2026-04-26T11:12:00.932Z</time></trkpt><trkpt lat="39.6578454" lon="8.544963"><ele>210.33333333333334</ele><time>2026-04-26T11:12:02.932Z</time></trkpt><trkpt lat="39.6577895" lon="8.5450479"><ele>209.5</ele><time>2026-04-26T11:12:04.933Z</time></trkpt><trkpt lat="39.6577273" lon="8.5451273"><ele>208.66666666666669</ele><time>2026-04-26T11:12:06.931Z</time></trkpt><trkpt lat="39.657663" lon="8.5452126"><ele>207.83333333333334</ele><time>2026-04-26T11:12:08.932Z</time></trkpt><trkpt lat="39.657601" lon="8.5452884"><ele>207.0</ele><time>2026-04-26T11:12:10.933Z</time></trkpt><trkpt lat="39.6575384" lon="8.5453625"><ele>208.5</ele><time>2026-04-26T11:12:12.932Z</time></trkpt><trkpt lat="39.6574858" lon="8.5454328"><ele>210.0</ele><time>2026-04-26T11:12:14.931Z</time></trkpt><trkpt lat="39.6574338" lon="8.5455097"><ele>211.5</ele><time>2026-04-26T11:12:16.931Z</time></trkpt><trkpt lat="39.6573836" lon="8.5455919"><ele>213.0</ele><time>2026-04-26T11:12:18.932Z</time></trkpt><trkpt lat="39.6573285" lon="8.5456588"><ele>214.5</ele><time>2026-04-26T11:12:20.931Z</time></trkpt><trkpt lat="39.6572625" lon="8.5457032"><ele>216.0</ele><time>2026-04-26T11:12:22.932Z</time></trkpt><trkpt lat="39.6571899" lon="8.5457199"><ele>216.0</ele><time>2026-04-26T11:12:24.932Z</time></trkpt><trkpt lat="39.657115" lon="8.5457052"><ele>216.0</ele><time>2026-04-26T11:12:26.932Z</time></trkpt><trkpt lat="39.6570491" lon="8.5456573"><ele>216.0</ele><time>2026-04-26T11:12:28.931Z</time></trkpt><trkpt lat="39.6569947" lon="8.5455887"><ele>216.0</ele><time>2026-04-26T11:12:30.932Z</time></trkpt><trkpt lat="39.656939" lon="8.5455226"><ele>216.0</ele><time>2026-04-26T11:12:32.934Z</time></trkpt><trkpt lat="39.6568881" lon="8.5454613"><ele>216.0</ele><time>2026-04-26T11:12:34.931Z</time></trkpt><trkpt lat="39.6568047" lon="8.5454191"><ele>217.42857142857142</ele><time>2026-04-26T11:12:37.931Z</time></trkpt><trkpt lat="39.6567287" lon="8.5454716"><ele>218.85714285714283</ele><time>2026-04-26T11:12:40.932Z</time></trkpt><trkpt lat="39.6566902" lon="8.5455377"><ele>220.28571428571428</ele><time>2026-04-26T11:12:42.931Z</time></trkpt><trkpt lat="39.6566626" lon="8.5456178"><ele>221.71428571428572</ele><time>2026-04-26T11:12:44.932Z</time></trkpt><trkpt lat="39.656632" lon="8.5456928"><ele>223.14285714285714</ele><time>2026-04-26T11:12:46.932Z</time></trkpt><trkpt lat="39.6565971" lon="8.5457706"><ele>224.57142857142858</ele><time>2026-04-26T11:12:48.932Z</time></trkpt><trkpt lat="39.6565633" lon="8.5458527"><ele>226.0</ele><time>2026-04-26T11:12:50.932Z</time></trkpt><trkpt lat="39.6565302" lon="8.5459312"><ele>226.0</ele><time>2026-04-26T11:12:52.933Z</time></trkpt><trkpt lat="39.656493" lon="8.5460124"><ele>226.0</ele><time>2026-04-26T11:12:54.932Z</time></trkpt><trkpt lat="39.656456" lon="8.5460931"><ele>226.0</ele><time>2026-04-26T11:12:56.931Z</time></trkpt><trkpt lat="39.6564131" lon="8.5461678"><ele>226.0</ele><time>2026-04-26T11:12:58.933Z</time></trkpt><trkpt lat="39.6563676" lon="8.5462424"><ele>226.0</ele><time>2026-04-26T11:13:00.933Z</time></trkpt><trkpt lat="39.6563174" lon="8.5463127"><ele>226.0</ele><time>2026-04-26T11:13:02.931Z</time></trkpt><trkpt lat="39.6562619" lon="8.546373"><ele>226.0</ele><time>2026-04-26T11:13:04.932Z</time></trkpt><trkpt lat="39.6562" lon="8.5464232"><ele>224.57142857142858</ele><time>2026-04-26T11:13:06.932Z</time></trkpt><trkpt lat="39.6561309" lon="8.5464647"><ele>223.14285714285714</ele><time>2026-04-26T11:13:08.932Z</time></trkpt><trkpt lat="39.6560665" lon="8.5465108"><ele>221.71428571428572</ele><time>2026-04-26T11:13:10.932Z</time></trkpt><trkpt lat="39.6560068" lon="8.5465616"><ele>220.28571428571428</ele><time>2026-04-26T11:13:12.931Z</time></trkpt><trkpt lat="39.6559566" lon="8.5466261"><ele>218.85714285714283</ele><time>2026-04-26T11:13:14.931Z</time></trkpt><trkpt lat="39.655915" lon="8.5467054"><ele>217.42857142857142</ele><time>2026-04-26T11:13:16.931Z</time></trkpt><trkpt lat="39.6558787" lon="8.5467914"><ele>216.0</ele><time>2026-04-26T11:13:18.932Z</time></trkpt><trkpt lat="39.6558473" lon="8.5468833"><ele>217.33333333333334</ele><time>2026-04-26T11:13:20.932Z</time></trkpt><trkpt lat="39.6558177" lon="8.5469765"><ele>218.66666666666669</ele><time>2026-04-26T11:13:22.932Z</time></trkpt><trkpt lat="39.6557868" lon="8.5470737"><ele>220.0</ele><time>2026-04-26T11:13:24.932Z</time></trkpt><trkpt lat="39.6557601" lon="8.5471635"><ele>221.33333333333334</ele><time>2026-04-26T11:13:26.931Z</time></trkpt><trkpt lat="39.655724" lon="8.5472524"><ele>222.66666666666669</ele><time>2026-04-26T11:13:28.931Z</time></trkpt><trkpt lat="39.6556839" lon="8.5473329"><ele>224.0</ele><time>2026-04-26T11:13:30.932Z</time></trkpt><trkpt lat="39.6556376" lon="8.5474083"><ele>224.0</ele><time>2026-04-26T11:13:32.932Z</time></trkpt><trkpt lat="39.6555867" lon="8.5474769"><ele>224.0</ele><time>2026-04-26T11:13:34.931Z</time></trkpt><trkpt lat="39.6555262" lon="8.5475368"><ele>224.0</ele><time>2026-04-26T11:13:36.931Z</time></trkpt><trkpt lat="39.6554577" lon="8.5475836"><ele>224.0</ele><time>2026-04-26T11:13:38.932Z</time></trkpt><trkpt lat="39.6553915" lon="8.547613"><ele>224.0</ele><time>2026-04-26T11:13:40.932Z</time></trkpt><trkpt lat="39.6553285" lon="8.5476328"><ele>224.0</ele><time>2026-04-26T11:13:42.931Z</time></trkpt><trkpt lat="39.6552606" lon="8.5476556"><ele>224.0</ele><time>2026-04-26T11:13:44.931Z</time></trkpt><trkpt lat="39.6551944" lon="8.5476715"><ele>227.83333333333334</ele><time>2026-04-26T11:13:46.931Z</time></trkpt><trkpt lat="39.6551" lon="8.5476764"><ele>231.66666666666669</ele><time>2026-04-26T11:13:49.931Z</time></trkpt><trkpt lat="39.6550052" lon="8.5476779"><ele>235.5</ele><time>2026-04-26T11:13:52.931Z</time></trkpt><trkpt lat="39.6549326" lon="8.5476712"><ele>239.33333333333331</ele><time>2026-04-26T11:13:54.932Z</time></trkpt><trkpt lat="39.6548598" lon="8.547664"><ele>243.16666666666666</ele><time>2026-04-26T11:13:56.931Z</time></trkpt><trkpt lat="39.6547883" lon="8.5476627"><ele>247.0</ele><time>2026-04-26T11:13:58.933Z</time></trkpt><trkpt lat="39.6547137" lon="8.5476684"><ele>247.0</ele><time>2026-04-26T11:14:00.932Z</time></trkpt><trkpt lat="39.6546429" lon="8.5476737"><ele>247.0</ele><time>2026-04-26T11:14:02.931Z</time></trkpt><trkpt lat="39.6545742" lon="8.5476736"><ele>247.0</ele><time>2026-04-26T11:14:04.931Z</time></trkpt><trkpt lat="39.6545016" lon="8.5476736"><ele>247.0</ele><time>2026-04-26T11:14:06.93Z</time></trkpt><trkpt lat="39.6544284" lon="8.547675"><ele>247.0</ele><time>2026-04-26T11:14:08.931Z</time></trkpt><trkpt lat="39.6543576" lon="8.5476794"><ele>247.0</ele><time>2026-04-26T11:14:10.932Z</time></trkpt><trkpt lat="39.6542822" lon="8.5476851"><ele>247.0</ele><time>2026-04-26T11:14:12.93Z</time></trkpt><trkpt lat="39.6542097" lon="8.547697"><ele>247.42857142857144</ele><time>2026-04-26T11:14:14.932Z</time></trkpt><trkpt lat="39.6541433" lon="8.5477121"><ele>247.85714285714283</ele><time>2026-04-26T11:14:16.932Z</time></trkpt><trkpt lat="39.6540773" lon="8.5477374"><ele>248.28571428571428</ele><time>2026-04-26T11:14:18.932Z</time></trkpt><trkpt lat="39.6540119" lon="8.5477667"><ele>248.71428571428572</ele><time>2026-04-26T11:14:20.932Z</time></trkpt><trkpt lat="39.6539469" lon="8.5478064"><ele>249.14285714285717</ele><time>2026-04-26T11:14:22.932Z</time></trkpt><trkpt lat="39.6538823" lon="8.5478586"><ele>249.57142857142856</ele><time>2026-04-26T11:14:24.931Z</time></trkpt><trkpt lat="39.6538203" lon="8.5479222"><ele>250.0</ele><time>2026-04-26T11:14:26.932Z</time></trkpt><trkpt lat="39.6537624" lon="8.5479934"><ele>248.33333333333331</ele><time>2026-04-26T11:14:28.932Z</time></trkpt><trkpt lat="39.6537066" lon="8.5480665"><ele>246.66666666666666</ele><time>2026-04-26T11:14:30.931Z</time></trkpt><trkpt lat="39.653653" lon="8.5481422"><ele>245.0</ele><time>2026-04-26T11:14:32.93Z</time></trkpt><trkpt lat="39.6536008" lon="8.5482122"><ele>243.33333333333331</ele><time>2026-04-26T11:14:34.932Z</time></trkpt><trkpt lat="39.653552" lon="8.5482669"><ele>241.66666666666666</ele><time>2026-04-26T11:14:36.932Z</time></trkpt><trkpt lat="39.6534839" lon="8.5483141"><ele>240.0</ele><time>2026-04-26T11:14:39.932Z</time></trkpt><trkpt lat="39.6534012" lon="8.5483305"><ele>240.0</ele><time>2026-04-26T11:14:43.933Z</time></trkpt><trkpt lat="39.6533358" lon="8.5482824"><ele>240.0</ele><time>2026-04-26T11:14:47.93Z</time></trkpt><trkpt lat="39.6533231" lon="8.5481956"><ele>240.0</ele><time>2026-04-26T11:15:04.931Z</time></trkpt><trkpt lat="39.6534179" lon="8.5475295"><ele>240.16666666666666</ele><time>2026-04-26T11:16:19.845Z</time></trkpt><trkpt lat="39.6534323" lon="8.5474182"><ele>240.33333333333331</ele><time>2026-04-26T11:16:22.93Z</time></trkpt><trkpt lat="39.6534461" lon="8.5473101"><ele>240.5</ele><time>2026-04-26T11:16:25.93Z</time></trkpt><trkpt lat="39.6534478" lon="8.5472009"><ele>240.66666666666666</ele><time>2026-04-26T11:16:28.93Z</time></trkpt><trkpt lat="39.6534393" lon="8.5470791"><ele>240.83333333333331</ele><time>2026-04-26T11:16:31.931Z</time></trkpt><trkpt lat="39.6534365" lon="8.5469937"><ele>241.0</ele><time>2026-04-26T11:16:33.93Z</time></trkpt><trkpt lat="39.6534397" lon="8.5469072"><ele>241.71428571428572</ele><time>2026-04-26T11:16:35.931Z</time></trkpt><trkpt lat="39.6534441" lon="8.5468212"><ele>242.42857142857144</ele><time>2026-04-26T11:16:37.931Z</time></trkpt><trkpt lat="39.6534492" lon="8.5467371"><ele>243.14285714285717</ele><time>2026-04-26T11:16:39.931Z</time></trkpt><trkpt lat="39.6534543" lon="8.5466522"><ele>243.8571428571429</ele><time>2026-04-26T11:16:41.931Z</time></trkpt><trkpt lat="39.6534576" lon="8.5465681"><ele>244.57142857142858</ele><time>2026-04-26T11:16:43.931Z</time></trkpt><trkpt lat="39.6534561" lon="8.5464852"><ele>245.28571428571433</ele><time>2026-04-26T11:16:45.931Z</time></trkpt><trkpt lat="39.6534375" lon="8.5463665"><ele>246.00000000000003</ele><time>2026-04-26T11:16:48.931Z</time></trkpt><trkpt lat="39.6534011" lon="8.546255"><ele>246.0</ele><time>2026-04-26T11:16:51.931Z</time></trkpt><trkpt lat="39.6533508" lon="8.54616"><ele>246.0</ele><time>2026-04-26T11:16:54.931Z</time></trkpt><trkpt lat="39.6532856" lon="8.5460845"><ele>246.0</ele><time>2026-04-26T11:16:57.93Z</time></trkpt><trkpt lat="39.6532082" lon="8.546058"><ele>246.0</ele><time>2026-04-26T11:17:00.93Z</time></trkpt><trkpt lat="39.653142" lon="8.5461135"><ele>246.0</ele><time>2026-04-26T11:17:03.93Z</time></trkpt><trkpt lat="39.6531185" lon="8.546229"><ele>246.0</ele><time>2026-04-26T11:17:06.932Z</time></trkpt><trkpt lat="39.6531056" lon="8.5463444"><ele>246.0</ele><time>2026-04-26T11:17:09.931Z</time></trkpt><trkpt lat="39.6530877" lon="8.5464584"><ele>246.0</ele><time>2026-04-26T11:17:12.93Z</time></trkpt><trkpt lat="39.6530446" lon="8.5465675"><ele>246.0</ele><time>2026-04-26T11:17:15.93Z</time></trkpt><trkpt lat="39.6530026" lon="8.546636"><ele>246.0</ele><time>2026-04-26T11:17:17.93Z</time></trkpt><trkpt lat="39.6529589" lon="8.5467092"><ele>246.0</ele><time>2026-04-26T11:17:19.931Z</time></trkpt><trkpt lat="39.6529108" lon="8.546784"><ele>246.0</ele><time>2026-04-26T11:17:21.932Z</time></trkpt><trkpt lat="39.6528622" lon="8.5468571"><ele>246.00000000000003</ele><time>2026-04-26T11:17:23.93Z</time></trkpt><trkpt lat="39.6528095" lon="8.546931"><ele>246.0</ele><time>2026-04-26T11:17:25.931Z</time></trkpt><trkpt lat="39.6527559" lon="8.5469977"><ele>246.00000000000003</ele><time>2026-04-26T11:17:27.931Z</time></trkpt><trkpt lat="39.6526989" lon="8.5470581"><ele>246.00000000000003</ele><time>2026-04-26T11:17:29.931Z</time></trkpt><trkpt lat="39.6526467" lon="8.5471172"><ele>246.0</ele><time>2026-04-26T11:17:31.932Z</time></trkpt><trkpt lat="39.6525886" lon="8.5471621"><ele>246.00000000000003</ele><time>2026-04-26T11:17:33.932Z</time></trkpt><trkpt lat="39.6525262" lon="8.5471948"><ele>246.00000000000003</ele><time>2026-04-26T11:17:35.931Z</time></trkpt><trkpt lat="39.6524571" lon="8.5472224"><ele>244.5</ele><time>2026-04-26T11:17:37.931Z</time></trkpt><trkpt lat="39.6523839" lon="8.5472486"><ele>243.0</ele><time>2026-04-26T11:17:39.932Z</time></trkpt><trkpt lat="39.6523105" lon="8.5472704"><ele>241.5</ele><time>2026-04-26T11:17:41.931Z</time></trkpt><trkpt lat="39.652236" lon="8.5472934"><ele>240.0</ele><time>2026-04-26T11:17:43.933Z</time></trkpt><trkpt lat="39.6521618" lon="8.5473127"><ele>238.5</ele><time>2026-04-26T11:17:45.93Z</time></trkpt><trkpt lat="39.6520856" lon="8.5473314"><ele>237.0</ele><time>2026-04-26T11:17:47.93Z</time></trkpt><trkpt lat="39.6520081" lon="8.5473427"><ele>237.66666666666666</ele><time>2026-04-26T11:17:49.931Z</time></trkpt><trkpt lat="39.6519265" lon="8.5473518"><ele>238.33333333333331</ele><time>2026-04-26T11:17:51.93Z</time></trkpt><trkpt lat="39.6518446" lon="8.5473566"><ele>239.0</ele><time>2026-04-26T11:17:53.93Z</time></trkpt><trkpt lat="39.6517654" lon="8.5473638"><ele>239.66666666666666</ele><time>2026-04-26T11:17:55.93Z</time></trkpt><trkpt lat="39.6516882" lon="8.5473675"><ele>240.33333333333331</ele><time>2026-04-26T11:17:57.931Z</time></trkpt><trkpt lat="39.651614" lon="8.5473648"><ele>241.0</ele><time>2026-04-26T11:17:59.932Z</time></trkpt><trkpt lat="39.6515416" lon="8.5473522"><ele>240.99999999999997</ele><time>2026-04-26T11:18:01.932Z</time></trkpt><trkpt lat="39.6514722" lon="8.5473155"><ele>241.0</ele><time>2026-04-26T11:18:03.93Z</time></trkpt><trkpt lat="39.651412" lon="8.5472558"><ele>241.0</ele><time>2026-04-26T11:18:05.931Z</time></trkpt><trkpt lat="39.6513585" lon="8.5471832"><ele>241.0</ele><time>2026-04-26T11:18:07.931Z</time></trkpt><trkpt lat="39.6513133" lon="8.5471077"><ele>240.99999999999997</ele><time>2026-04-26T11:18:09.931Z</time></trkpt><trkpt lat="39.6512649" lon="8.5470286"><ele>241.0</ele><time>2026-04-26T11:18:11.93Z</time></trkpt><trkpt lat="39.651206" lon="8.5469652"><ele>244.16666666666666</ele><time>2026-04-26T11:18:13.932Z</time></trkpt><trkpt lat="39.6511372" lon="8.5469269"><ele>247.33333333333331</ele><time>2026-04-26T11:18:15.931Z</time></trkpt><trkpt lat="39.6510605" lon="8.5469083"><ele>250.5</ele><time>2026-04-26T11:18:17.931Z</time></trkpt><trkpt lat="39.6509817" lon="8.5469063"><ele>253.66666666666669</ele><time>2026-04-26T11:18:19.932Z</time></trkpt><trkpt lat="39.650901" lon="8.546912"><ele>256.83333333333337</ele><time>2026-04-26T11:18:21.93Z</time></trkpt><trkpt lat="39.650827" lon="8.5469321"><ele>260.0</ele><time>2026-04-26T11:18:23.931Z</time></trkpt><trkpt lat="39.6507534" lon="8.5469563"><ele>260.00000000000006</ele><time>2026-04-26T11:18:25.931Z</time></trkpt><trkpt lat="39.6506838" lon="8.5469777"><ele>260.0</ele><time>2026-04-26T11:18:27.931Z</time></trkpt><trkpt lat="39.6505953" lon="8.5469843"><ele>260.0</ele><time>2026-04-26T11:18:30.931Z</time></trkpt><trkpt lat="39.650526" lon="8.546962"><ele>260.0</ele><time>2026-04-26T11:18:33.931Z</time></trkpt><trkpt lat="39.6504554" lon="8.5469022"><ele>260.0</ele><time>2026-04-26T11:18:36.93Z</time></trkpt><trkpt lat="39.6504086" lon="8.5468408"><ele>260.00000000000006</ele><time>2026-04-26T11:18:38.931Z</time></trkpt><trkpt lat="39.6503681" lon="8.5467719"><ele>260.0</ele><time>2026-04-26T11:18:40.93Z</time></trkpt><trkpt lat="39.6503314" lon="8.5467018"><ele>260.00000000000006</ele><time>2026-04-26T11:18:42.931Z</time></trkpt><trkpt lat="39.650297" lon="8.5466303"><ele>260.0</ele><time>2026-04-26T11:18:44.931Z</time></trkpt><trkpt lat="39.6502544" lon="8.5465675"><ele>260.0</ele><time>2026-04-26T11:18:46.931Z</time></trkpt><trkpt lat="39.6501953" lon="8.5465324"><ele>260.0</ele><time>2026-04-26T11:18:48.931Z</time></trkpt><trkpt lat="39.6501295" lon="8.5465311"><ele>260.0</ele><time>2026-04-26T11:18:50.931Z</time></trkpt><trkpt lat="39.6500638" lon="8.5465578"><ele>260.00000000000006</ele><time>2026-04-26T11:18:52.93Z</time></trkpt><trkpt lat="39.6499968" lon="8.546589"><ele>260.0</ele><time>2026-04-26T11:18:54.931Z</time></trkpt><trkpt lat="39.6499272" lon="8.5466177"><ele>258.83333333333337</ele><time>2026-04-26T11:18:56.931Z</time></trkpt><trkpt lat="39.6498543" lon="8.5466522"><ele>257.6666666666667</ele><time>2026-04-26T11:18:58.931Z</time></trkpt><trkpt lat="39.6497814" lon="8.5466787"><ele>256.5</ele><time>2026-04-26T11:19:00.93Z</time></trkpt><trkpt lat="39.6497058" lon="8.546695"><ele>255.33333333333331</ele><time>2026-04-26T11:19:02.931Z</time></trkpt><trkpt lat="39.6496307" lon="8.5467041"><ele>254.16666666666666</ele><time>2026-04-26T11:19:04.931Z</time></trkpt><trkpt lat="39.6495585" lon="8.5467158"><ele>253.0</ele><time>2026-04-26T11:19:06.93Z</time></trkpt><trkpt lat="39.6494825" lon="8.5467226"><ele>253.5714285714286</ele><time>2026-04-26T11:19:08.931Z</time></trkpt><trkpt lat="39.6494123" lon="8.5467262"><ele>254.14285714285717</ele><time>2026-04-26T11:19:10.93Z</time></trkpt><trkpt lat="39.6493457" lon="8.5467308"><ele>254.71428571428572</ele><time>2026-04-26T11:19:16.931Z</time></trkpt><trkpt lat="39.6492822" lon="8.546741"><ele>255.2857142857143</ele><time>2026-04-26T11:19:27.929Z</time></trkpt><trkpt lat="39.6492035" lon="8.5467468"><ele>255.8571428571429</ele><time>2026-04-26T11:19:30.93Z</time></trkpt><trkpt lat="39.6491404" lon="8.5467475"><ele>256.42857142857144</ele><time>2026-04-26T11:19:32.93Z</time></trkpt><trkpt lat="39.6490738" lon="8.5467427"><ele>257.0</ele><time>2026-04-26T11:19:34.931Z</time></trkpt><trkpt lat="39.6490074" lon="8.5467335"><ele>257.0</ele><time>2026-04-26T11:19:36.931Z</time></trkpt><trkpt lat="39.6489422" lon="8.5467214"><ele>257.0</ele><time>2026-04-26T11:19:38.932Z</time></trkpt><trkpt lat="39.6488737" lon="8.5467076"><ele>257.0</ele><time>2026-04-26T11:19:40.93Z</time></trkpt><trkpt lat="39.6488003" lon="8.546695"><ele>257.0</ele><time>2026-04-26T11:19:42.932Z</time></trkpt><trkpt lat="39.6487257" lon="8.5466944"><ele>257.0</ele><time>2026-04-26T11:19:44.93Z</time></trkpt><trkpt lat="39.6486505" lon="8.546707"><ele>257.0</ele><time>2026-04-26T11:19:46.931Z</time></trkpt><trkpt lat="39.6485745" lon="8.5467254"><ele>257.0</ele><time>2026-04-26T11:19:48.931Z</time></trkpt><trkpt lat="39.6484973" lon="8.5467413"><ele>256.0</ele><time>2026-04-26T11:19:50.93Z</time></trkpt><trkpt lat="39.6484202" lon="8.5467541"><ele>255.0</ele><time>2026-04-26T11:19:52.931Z</time></trkpt><trkpt lat="39.6483412" lon="8.5467667"><ele>254.0</ele><time>2026-04-26T11:19:54.931Z</time></trkpt><trkpt lat="39.6482632" lon="8.546776"><ele>253.0</ele><time>2026-04-26T11:19:56.931Z</time></trkpt><trkpt lat="39.6481877" lon="8.5467724"><ele>252.00000000000003</ele><time>2026-04-26T11:19:58.93Z</time></trkpt><trkpt lat="39.6481178" lon="8.5467468"><ele>251.0</ele><time>2026-04-26T11:20:00.931Z</time></trkpt><trkpt lat="39.6480592" lon="8.5466973"><ele>251.00000000000003</ele><time>2026-04-26T11:20:02.93Z</time></trkpt><trkpt lat="39.6480068" lon="8.5466307"><ele>251.0</ele><time>2026-04-26T11:20:04.931Z</time></trkpt><trkpt lat="39.6479588" lon="8.5465526"><ele>251.0</ele><time>2026-04-26T11:20:06.93Z</time></trkpt><trkpt lat="39.6479122" lon="8.5464693"><ele>251.0</ele><time>2026-04-26T11:20:08.931Z</time></trkpt><trkpt lat="39.647868" lon="8.5463859"><ele>251.00000000000003</ele><time>2026-04-26T11:20:10.931Z</time></trkpt><trkpt lat="39.6478245" lon="8.5463018"><ele>251.0</ele><time>2026-04-26T11:20:12.931Z</time></trkpt><trkpt lat="39.6477792" lon="8.5462171"><ele>250.50000000000003</ele><time>2026-04-26T11:20:14.931Z</time></trkpt><trkpt lat="39.6477381" lon="8.5461321"><ele>250.0</ele><time>2026-04-26T11:20:16.93Z</time></trkpt><trkpt lat="39.6476975" lon="8.5460477"><ele>249.5</ele><time>2026-04-26T11:20:18.931Z</time></trkpt><trkpt lat="39.6476575" lon="8.5459634"><ele>249.0</ele><time>2026-04-26T11:20:20.931Z</time></trkpt><trkpt lat="39.6476194" lon="8.5458786"><ele>248.50000000000003</ele><time>2026-04-26T11:20:22.931Z</time></trkpt><trkpt lat="39.6475814" lon="8.5457923"><ele>248.0</ele><time>2026-04-26T11:20:24.93Z</time></trkpt><trkpt lat="39.6475513" lon="8.545701"><ele>248.00000000000003</ele><time>2026-04-26T11:20:26.931Z</time></trkpt><trkpt lat="39.647537" lon="8.5456051"><ele>248.0</ele><time>2026-04-26T11:20:28.931Z</time></trkpt><trkpt lat="39.6475394" lon="8.5455092"><ele>248.0</ele><time>2026-04-26T11:20:30.931Z</time></trkpt><trkpt lat="39.6475543" lon="8.5454161"><ele>248.0</ele><time>2026-04-26T11:20:32.931Z</time></trkpt><trkpt lat="39.6475656" lon="8.5453222"><ele>248.00000000000003</ele><time>2026-04-26T11:20:34.932Z</time></trkpt><trkpt lat="39.6475652" lon="8.5452225"><ele>248.0</ele><time>2026-04-26T11:20:36.93Z</time></trkpt><trkpt lat="39.6475514" lon="8.5451183"><ele>249.66666666666669</ele><time>2026-04-26T11:20:38.931Z</time></trkpt><trkpt lat="39.6475264" lon="8.5450207"><ele>251.33333333333334</ele><time>2026-04-26T11:20:40.93Z</time></trkpt><trkpt lat="39.6474936" lon="8.5449272"><ele>253.0</ele><time>2026-04-26T11:20:42.93Z</time></trkpt><trkpt lat="39.6474596" lon="8.5448399"><ele>254.66666666666669</ele><time>2026-04-26T11:20:44.931Z</time></trkpt><trkpt lat="39.6474248" lon="8.544753"><ele>256.3333333333333</ele><time>2026-04-26T11:20:46.931Z</time></trkpt><trkpt lat="39.6473884" lon="8.5446671"><ele>258.0</ele><time>2026-04-26T11:20:48.929Z</time></trkpt><trkpt lat="39.6473522" lon="8.5445815"><ele>257.57142857142856</ele><time>2026-04-26T11:20:50.931Z</time></trkpt><trkpt lat="39.6473171" lon="8.5445028"><ele>257.1428571428571</ele><time>2026-04-26T11:20:52.929Z</time></trkpt><trkpt lat="39.647269" lon="8.5444345"><ele>256.7142857142857</ele><time>2026-04-26T11:20:54.931Z</time></trkpt><trkpt lat="39.6472065" lon="8.5443994"><ele>256.2857142857143</ele><time>2026-04-26T11:20:56.931Z</time></trkpt><trkpt lat="39.6471403" lon="8.5443951"><ele>255.8571428571429</ele><time>2026-04-26T11:20:58.93Z</time></trkpt><trkpt lat="39.6470747" lon="8.5444013"><ele>255.42857142857144</ele><time>2026-04-26T11:21:00.93Z</time></trkpt><trkpt lat="39.6470058" lon="8.544407"><ele>255.0</ele><time>2026-04-26T11:21:02.93Z</time></trkpt><trkpt lat="39.6469336" lon="8.5444024"><ele>255.0</ele><time>2026-04-26T11:21:04.931Z</time></trkpt><trkpt lat="39.6468639" lon="8.5443903"><ele>255.00000000000003</ele><time>2026-04-26T11:21:06.932Z</time></trkpt><trkpt lat="39.6467952" lon="8.5443677"><ele>255.0</ele><time>2026-04-26T11:21:08.931Z</time></trkpt><trkpt lat="39.6467304" lon="8.5443338"><ele>255.0</ele><time>2026-04-26T11:21:10.93Z</time></trkpt><trkpt lat="39.6466673" lon="8.5442865"><ele>255.00000000000003</ele><time>2026-04-26T11:21:12.931Z</time></trkpt><trkpt lat="39.6466077" lon="8.5442236"><ele>255.0</ele><time>2026-04-26T11:21:14.93Z</time></trkpt><trkpt lat="39.6465565" lon="8.5441488"><ele>255.0</ele><time>2026-04-26T11:21:16.931Z</time></trkpt><trkpt lat="39.6465139" lon="8.5440695"><ele>255.0</ele><time>2026-04-26T11:21:18.93Z</time></trkpt><trkpt lat="39.6464809" lon="8.5439828"><ele>255.00000000000003</ele><time>2026-04-26T11:21:20.93Z</time></trkpt><trkpt lat="39.646444" lon="8.5438974"><ele>255.0</ele><time>2026-04-26T11:21:22.931Z</time></trkpt><trkpt lat="39.6464058" lon="8.543812"><ele>255.0</ele><time>2026-04-26T11:21:24.93Z</time></trkpt><trkpt lat="39.6463679" lon="8.54373"><ele>255.00000000000003</ele><time>2026-04-26T11:21:26.93Z</time></trkpt><trkpt lat="39.6463257" lon="8.5436483"><ele>255.0</ele><time>2026-04-26T11:21:28.93Z</time></trkpt><trkpt lat="39.6462859" lon="8.5435692"><ele>255.0</ele><time>2026-04-26T11:21:30.93Z</time></trkpt><trkpt lat="39.646247" lon="8.5434862"><ele>253.66666666666666</ele><time>2026-04-26T11:21:32.931Z</time></trkpt><trkpt lat="39.646203" lon="8.5434047"><ele>252.33333333333331</ele><time>2026-04-26T11:21:34.93Z</time></trkpt><trkpt lat="39.6461586" lon="8.5433252"><ele>251.0</ele><time>2026-04-26T11:21:36.931Z</time></trkpt><trkpt lat="39.6461208" lon="8.5432444"><ele>249.66666666666666</ele><time>2026-04-26T11:21:38.931Z</time></trkpt><trkpt lat="39.646089" lon="8.5431554"><ele>248.33333333333331</ele><time>2026-04-26T11:21:40.93Z</time></trkpt><trkpt lat="39.6460668" lon="8.5430628"><ele>247.0</ele><time>2026-04-26T11:21:42.931Z</time></trkpt><trkpt lat="39.6460521" lon="8.5429679"><ele>249.66666666666666</ele><time>2026-04-26T11:21:44.93Z</time></trkpt><trkpt lat="39.6460405" lon="8.5428728"><ele>252.33333333333331</ele><time>2026-04-26T11:21:46.929Z</time></trkpt><trkpt lat="39.6460271" lon="8.5427749"><ele>255.0</ele><time>2026-04-26T11:21:48.93Z</time></trkpt><trkpt lat="39.6460121" lon="8.5426734"><ele>257.6666666666667</ele><time>2026-04-26T11:21:50.929Z</time></trkpt><trkpt lat="39.6460024" lon="8.5425712"><ele>260.33333333333337</ele><time>2026-04-26T11:21:52.93Z</time></trkpt><trkpt lat="39.6459945" lon="8.5424774"><ele>263.0</ele><time>2026-04-26T11:21:54.93Z</time></trkpt><trkpt lat="39.6459807" lon="8.5423876"><ele>263.0</ele><time>2026-04-26T11:21:56.93Z</time></trkpt><trkpt lat="39.6459503" lon="8.542305"><ele>263.0</ele><time>2026-04-26T11:21:58.931Z</time></trkpt><trkpt lat="39.6458984" lon="8.5422519"><ele>263.0</ele><time>2026-04-26T11:22:00.929Z</time></trkpt><trkpt lat="39.6458281" lon="8.542254"><ele>263.0</ele><time>2026-04-26T11:22:02.93Z</time></trkpt><trkpt lat="39.6457553" lon="8.5423013"><ele>263.0</ele><time>2026-04-26T11:22:04.931Z</time></trkpt><trkpt lat="39.6456889" lon="8.5423607"><ele>263.0</ele><time>2026-04-26T11:22:06.931Z</time></trkpt><trkpt lat="39.6456252" lon="8.5424299"><ele>263.0</ele><time>2026-04-26T11:22:08.93Z</time></trkpt><trkpt lat="39.645573" lon="8.5425142"><ele>263.0</ele><time>2026-04-26T11:22:10.93Z</time></trkpt><trkpt lat="39.645531" lon="8.5426101"><ele>263.0</ele><time>2026-04-26T11:22:12.93Z</time></trkpt><trkpt lat="39.6454915" lon="8.5427035"><ele>263.0</ele><time>2026-04-26T11:22:14.932Z</time></trkpt><trkpt lat="39.645452" lon="8.5427959"><ele>263.0</ele><time>2026-04-26T11:22:16.93Z</time></trkpt><trkpt lat="39.6454107" lon="8.5428869"><ele>263.0</ele><time>2026-04-26T11:22:18.929Z</time></trkpt><trkpt lat="39.6453708" lon="8.5429823"><ele>265.0</ele><time>2026-04-26T11:22:20.93Z</time></trkpt><trkpt lat="39.6453348" lon="8.5430737"><ele>267.0</ele><time>2026-04-26T11:22:22.93Z</time></trkpt><trkpt lat="39.6453048" lon="8.5431769"><ele>269.0</ele><time>2026-04-26T11:22:24.931Z</time></trkpt><trkpt lat="39.6452854" lon="8.5432801"><ele>271.0</ele><time>2026-04-26T11:22:26.93Z</time></trkpt><trkpt lat="39.6452704" lon="8.5433851"><ele>273.0</ele><time>2026-04-26T11:22:28.929Z</time></trkpt><trkpt lat="39.6452565" lon="8.5434926"><ele>275.0</ele><time>2026-04-26T11:22:30.93Z</time></trkpt><trkpt lat="39.6452388" lon="8.5435945"><ele>275.0</ele><time>2026-04-26T11:22:32.93Z</time></trkpt><trkpt lat="39.6452206" lon="8.5437007"><ele>275.0</ele><time>2026-04-26T11:22:34.929Z</time></trkpt><trkpt lat="39.645191" lon="8.5438047"><ele>275.0</ele><time>2026-04-26T11:22:36.93Z</time></trkpt><trkpt lat="39.6451598" lon="8.5439095"><ele>275.0</ele><time>2026-04-26T11:22:38.931Z</time></trkpt><trkpt lat="39.6451268" lon="8.544016"><ele>275.0</ele><time>2026-04-26T11:22:40.929Z</time></trkpt><trkpt lat="39.6450894" lon="8.5441168"><ele>275.0</ele><time>2026-04-26T11:22:42.929Z</time></trkpt><trkpt lat="39.6450565" lon="8.5442179"><ele>272.1666666666667</ele><time>2026-04-26T11:22:44.929Z</time></trkpt><trkpt lat="39.6450177" lon="8.5443164"><ele>269.33333333333337</ele><time>2026-04-26T11:22:46.931Z</time></trkpt><trkpt lat="39.6449754" lon="8.5444104"><ele>266.5</ele><time>2026-04-26T11:22:48.932Z</time></trkpt><trkpt lat="39.6449245" lon="8.5444951"><ele>263.6666666666667</ele><time>2026-04-26T11:22:50.93Z</time></trkpt><trkpt lat="39.644862" lon="8.544567"><ele>260.8333333333333</ele><time>2026-04-26T11:22:52.93Z</time></trkpt><trkpt lat="39.6447901" lon="8.5446253"><ele>258.0</ele><time>2026-04-26T11:22:54.931Z</time></trkpt><trkpt lat="39.6447152" lon="8.5446654"><ele>257.5</ele><time>2026-04-26T11:22:56.931Z</time></trkpt><trkpt lat="39.6446354" lon="8.5446876"><ele>257.0</ele><time>2026-04-26T11:22:58.929Z</time></trkpt><trkpt lat="39.6445515" lon="8.5446889"><ele>256.5</ele><time>2026-04-26T11:23:00.93Z</time></trkpt><trkpt lat="39.644463" lon="8.5446808"><ele>256.0</ele><time>2026-04-26T11:23:02.929Z</time></trkpt><trkpt lat="39.6443751" lon="8.5446619"><ele>255.5</ele><time>2026-04-26T11:23:04.93Z</time></trkpt><trkpt lat="39.6442915" lon="8.5446454"><ele>255.0</ele><time>2026-04-26T11:23:06.929Z</time></trkpt><trkpt lat="39.6442043" lon="8.5446372"><ele>255.0</ele><time>2026-04-26T11:23:08.93Z</time></trkpt><trkpt lat="39.6441379" lon="8.5446521"><ele>255.00000000000003</ele><time>2026-04-26T11:23:10.93Z</time></trkpt><trkpt lat="39.6440912" lon="8.5447094"><ele>255.0</ele><time>2026-04-26T11:23:12.93Z</time></trkpt><trkpt lat="39.6440816" lon="8.5447959"><ele>255.0</ele><time>2026-04-26T11:23:14.931Z</time></trkpt><trkpt lat="39.6440986" lon="8.5448908"><ele>255.00000000000003</ele><time>2026-04-26T11:23:16.931Z</time></trkpt><trkpt lat="39.6441184" lon="8.5449904"><ele>255.0</ele><time>2026-04-26T11:23:18.929Z</time></trkpt><trkpt lat="39.6441219" lon="8.5450889"><ele>255.0</ele><time>2026-04-26T11:23:20.93Z</time></trkpt><trkpt lat="39.6440984" lon="8.5451804"><ele>255.0</ele><time>2026-04-26T11:23:22.931Z</time></trkpt><trkpt lat="39.6440535" lon="8.5452566"><ele>255.0</ele><time>2026-04-26T11:23:24.929Z</time></trkpt><trkpt lat="39.6439959" lon="8.5453218"><ele>255.0</ele><time>2026-04-26T11:23:26.931Z</time></trkpt><trkpt lat="39.6439313" lon="8.5453761"><ele>255.0</ele><time>2026-04-26T11:23:28.929Z</time></trkpt><trkpt lat="39.6438593" lon="8.5454214"><ele>255.0</ele><time>2026-04-26T11:23:30.929Z</time></trkpt><trkpt lat="39.6437909" lon="8.5454578"><ele>255.0</ele><time>2026-04-26T11:23:32.931Z</time></trkpt><trkpt lat="39.6437268" lon="8.5454926"><ele>253.0</ele><time>2026-04-26T11:23:34.93Z</time></trkpt><trkpt lat="39.6436692" lon="8.5455364"><ele>251.0</ele><time>2026-04-26T11:23:36.93Z</time></trkpt><trkpt lat="39.643628" lon="8.5456297"><ele>249.0</ele><time>2026-04-26T11:23:39.93Z</time></trkpt><trkpt lat="39.6436526" lon="8.5457295"><ele>247.0</ele><time>2026-04-26T11:23:42.93Z</time></trkpt><trkpt lat="39.6437107" lon="8.5458201"><ele>245.0</ele><time>2026-04-26T11:23:45.93Z</time></trkpt><trkpt lat="39.6437601" lon="8.5458766"><ele>243.0</ele><time>2026-04-26T11:23:47.929Z</time></trkpt><trkpt lat="39.6438132" lon="8.5459403"><ele>243.0</ele><time>2026-04-26T11:23:49.93Z</time></trkpt><trkpt lat="39.6438658" lon="8.5460096"><ele>243.0</ele><time>2026-04-26T11:23:51.93Z</time></trkpt><trkpt lat="39.6439108" lon="8.5460828"><ele>243.0</ele><time>2026-04-26T11:23:53.929Z</time></trkpt><trkpt lat="39.6439447" lon="8.5461638"><ele>243.0</ele><time>2026-04-26T11:23:55.93Z</time></trkpt><trkpt lat="39.6439699" lon="8.5462483"><ele>243.0</ele><time>2026-04-26T11:23:57.929Z</time></trkpt><trkpt lat="39.6439833" lon="8.5463371"><ele>243.0</ele><time>2026-04-26T11:23:59.931Z</time></trkpt><trkpt lat="39.6439808" lon="8.5464345"><ele>243.0</ele><time>2026-04-26T11:24:01.931Z</time></trkpt><trkpt lat="39.6439636" lon="8.5465276"><ele>243.16666666666666</ele><time>2026-04-26T11:24:03.93Z</time></trkpt><trkpt lat="39.6439308" lon="8.5466147"><ele>243.33333333333331</ele><time>2026-04-26T11:24:05.93Z</time></trkpt><trkpt lat="39.6438851" lon="8.5466806"><ele>243.5</ele><time>2026-04-26T11:24:07.93Z</time></trkpt><trkpt lat="39.6438406" lon="8.5467813"><ele>243.66666666666666</ele><time>2026-04-26T11:24:10.93Z</time></trkpt><trkpt lat="39.6438006" lon="8.5468809"><ele>243.83333333333331</ele><time>2026-04-26T11:24:13.93Z</time></trkpt><trkpt lat="39.643779" lon="8.5469891"><ele>244.0</ele><time>2026-04-26T11:24:16.93Z</time></trkpt><trkpt lat="39.6437804" lon="8.5471045"><ele>245.4285714285714</ele><time>2026-04-26T11:24:19.93Z</time></trkpt><trkpt lat="39.6438119" lon="8.5471802"><ele>246.85714285714283</ele><time>2026-04-26T11:24:21.93Z</time></trkpt><trkpt lat="39.6438833" lon="8.5472528"><ele>248.28571428571428</ele><time>2026-04-26T11:24:24.93Z</time></trkpt><trkpt lat="39.6439407" lon="8.547289"><ele>249.7142857142857</ele><time>2026-04-26T11:24:26.93Z</time></trkpt><trkpt lat="39.6440033" lon="8.5473245"><ele>251.1428571428571</ele><time>2026-04-26T11:24:28.93Z</time></trkpt><trkpt lat="39.6440674" lon="8.5473597"><ele>252.57142857142858</ele><time>2026-04-26T11:24:30.93Z</time></trkpt><trkpt lat="39.6441292" lon="8.5473971"><ele>254.0</ele><time>2026-04-26T11:24:32.931Z</time></trkpt><trkpt lat="39.6441867" lon="8.5474394"><ele>254.0</ele><time>2026-04-26T11:24:34.931Z</time></trkpt><trkpt lat="39.6442418" lon="8.5474892"><ele>254.0</ele><time>2026-04-26T11:24:36.93Z</time></trkpt><trkpt lat="39.6442925" lon="8.5475445"><ele>254.0</ele><time>2026-04-26T11:24:38.93Z</time></trkpt><trkpt lat="39.644334" lon="8.5476191"><ele>254.0</ele><time>2026-04-26T11:24:40.93Z</time></trkpt><trkpt lat="39.6443664" lon="8.5477004"><ele>254.0</ele><time>2026-04-26T11:24:42.929Z</time></trkpt><trkpt lat="39.6443863" lon="8.5477936"><ele>254.0</ele><time>2026-04-26T11:24:44.929Z</time></trkpt><trkpt lat="39.644394" lon="8.5478903"><ele>254.0</ele><time>2026-04-26T11:24:46.929Z</time></trkpt><trkpt lat="39.6443982" lon="8.547987"><ele>255.28571428571428</ele><time>2026-04-26T11:24:48.93Z</time></trkpt><trkpt lat="39.6443994" lon="8.5480818"><ele>256.57142857142856</ele><time>2026-04-26T11:24:50.93Z</time></trkpt><trkpt lat="39.6443986" lon="8.5481753"><ele>257.85714285714283</ele><time>2026-04-26T11:24:52.93Z</time></trkpt><trkpt lat="39.6443964" lon="8.5482685"><ele>259.1428571428571</ele><time>2026-04-26T11:24:54.93Z</time></trkpt><trkpt lat="39.6443972" lon="8.5483609"><ele>260.4285714285714</ele><time>2026-04-26T11:24:56.929Z</time></trkpt><trkpt lat="39.6443996" lon="8.5484552"><ele>261.7142857142857</ele><time>2026-04-26T11:24:58.928Z</time></trkpt><trkpt lat="39.6444012" lon="8.5485486"><ele>263.0</ele><time>2026-04-26T11:25:00.93Z</time></trkpt><trkpt lat="39.6444053" lon="8.5486452"><ele>262.85714285714283</ele><time>2026-04-26T11:25:02.929Z</time></trkpt><trkpt lat="39.6444081" lon="8.5487407"><ele>262.71428571428567</ele><time>2026-04-26T11:25:04.93Z</time></trkpt><trkpt lat="39.6444077" lon="8.5488386"><ele>262.57142857142856</ele><time>2026-04-26T11:25:06.93Z</time></trkpt><trkpt lat="39.6444043" lon="8.5489328"><ele>262.42857142857144</ele><time>2026-04-26T11:25:08.931Z</time></trkpt><trkpt lat="39.6444033" lon="8.5490261"><ele>262.28571428571433</ele><time>2026-04-26T11:25:10.929Z</time></trkpt><trkpt lat="39.6444046" lon="8.5491226"><ele>262.14285714285717</ele><time>2026-04-26T11:25:12.928Z</time></trkpt><trkpt lat="39.6444106" lon="8.5492207"><ele>262.0</ele><time>2026-04-26T11:25:14.929Z</time></trkpt><trkpt lat="39.6444184" lon="8.5493166"><ele>262.0</ele><time>2026-04-26T11:25:16.929Z</time></trkpt><trkpt lat="39.6444259" lon="8.5494084"><ele>262.0</ele><time>2026-04-26T11:25:18.93Z</time></trkpt><trkpt lat="39.6444318" lon="8.549504"><ele>262.0</ele><time>2026-04-26T11:25:20.93Z</time></trkpt><trkpt lat="39.6444292" lon="8.5496054"><ele>262.0</ele><time>2026-04-26T11:25:22.928Z</time></trkpt><trkpt lat="39.644419" lon="8.5497073"><ele>262.0</ele><time>2026-04-26T11:25:24.93Z</time></trkpt><trkpt lat="39.6443971" lon="8.5498027"><ele>262.0</ele><time>2026-04-26T11:25:26.93Z</time></trkpt><trkpt lat="39.6443627" lon="8.5498936"><ele>260.16666666666663</ele><time>2026-04-26T11:25:28.93Z</time></trkpt><trkpt lat="39.6443167" lon="8.5499779"><ele>258.3333333333333</ele><time>2026-04-26T11:25:30.93Z</time></trkpt><trkpt lat="39.644268" lon="8.5500541"><ele>256.5</ele><time>2026-04-26T11:25:32.93Z</time></trkpt><trkpt lat="39.6442215" lon="8.5501321"><ele>254.66666666666669</ele><time>2026-04-26T11:25:35.929Z</time></trkpt><trkpt lat="39.6441842" lon="8.5502065"><ele>252.83333333333334</ele><time>2026-04-26T11:25:46.929Z</time></trkpt><trkpt lat="39.6441273" lon="8.5502882"><ele>251.0</ele><time>2026-04-26T11:25:50.929Z</time></trkpt><trkpt lat="39.6440814" lon="8.5503514"><ele>248.83333333333334</ele><time>2026-04-26T11:25:52.93Z</time></trkpt><trkpt lat="39.6440365" lon="8.5504268"><ele>246.66666666666669</ele><time>2026-04-26T11:25:54.93Z</time></trkpt><trkpt lat="39.6439988" lon="8.5504927"><ele>244.5</ele><time>2026-04-26T11:25:56.93Z</time></trkpt><trkpt lat="39.6439483" lon="8.5505817"><ele>242.33333333333331</ele><time>2026-04-26T11:25:59.929Z</time></trkpt><trkpt lat="39.6439027" lon="8.5506679"><ele>240.16666666666666</ele><time>2026-04-26T11:26:02.93Z</time></trkpt><trkpt lat="39.6438642" lon="8.5507546"><ele>238.0</ele><time>2026-04-26T11:26:05.929Z</time></trkpt><trkpt lat="39.6438309" lon="8.5508442"><ele>237.99999999999997</ele><time>2026-04-26T11:26:08.928Z</time></trkpt><trkpt lat="39.6438006" lon="8.5509366"><ele>238.0</ele><time>2026-04-26T11:26:11.929Z</time></trkpt><trkpt lat="39.6437824" lon="8.5510339"><ele>238.0</ele><time>2026-04-26T11:26:14.928Z</time></trkpt><trkpt lat="39.6437871" lon="8.5511352"><ele>238.0</ele><time>2026-04-26T11:26:17.929Z</time></trkpt><trkpt lat="39.6438" lon="8.5512455"><ele>237.99999999999997</ele><time>2026-04-26T11:26:20.93Z</time></trkpt><trkpt lat="39.6438077" lon="8.5513628"><ele>238.0</ele><time>2026-04-26T11:26:23.93Z</time></trkpt><trkpt lat="39.6438047" lon="8.5514761"><ele>239.14285714285714</ele><time>2026-04-26T11:26:26.929Z</time></trkpt><trkpt lat="39.6437911" lon="8.5515916"><ele>240.28571428571428</ele><time>2026-04-26T11:26:29.929Z</time></trkpt><trkpt lat="39.6437756" lon="8.5516744"><ele>241.42857142857144</ele><time>2026-04-26T11:26:31.93Z</time></trkpt><trkpt lat="39.6437501" lon="8.5517544"><ele>242.57142857142858</ele><time>2026-04-26T11:26:33.929Z</time></trkpt><trkpt lat="39.643717" lon="8.5518244"><ele>243.71428571428572</ele><time>2026-04-26T11:26:35.929Z</time></trkpt><trkpt lat="39.643673" lon="8.5518872"><ele>244.8571428571429</ele><time>2026-04-26T11:26:37.929Z</time></trkpt><trkpt lat="39.643629" lon="8.5519522"><ele>246.00000000000003</ele><time>2026-04-26T11:26:39.929Z</time></trkpt><trkpt lat="39.6435875" lon="8.5520216"><ele>244.33333333333334</ele><time>2026-04-26T11:26:41.929Z</time></trkpt><trkpt lat="39.6435536" lon="8.5520959"><ele>242.66666666666669</ele><time>2026-04-26T11:26:43.93Z</time></trkpt><trkpt lat="39.6435283" lon="8.5522088"><ele>241.0</ele><time>2026-04-26T11:26:46.929Z</time></trkpt><trkpt lat="39.6435274" lon="8.5522938"><ele>239.33333333333334</ele><time>2026-04-26T11:26:48.928Z</time></trkpt><trkpt lat="39.6435418" lon="8.5523736"><ele>237.66666666666669</ele><time>2026-04-26T11:26:50.929Z</time></trkpt><trkpt lat="39.643573" lon="8.5524781"><ele>236.0</ele><time>2026-04-26T11:26:53.928Z</time></trkpt><trkpt lat="39.643593" lon="8.5525902"><ele>236.00000000000003</ele><time>2026-04-26T11:26:56.929Z</time></trkpt><trkpt lat="39.6435975" lon="8.5527008"><ele>236.0</ele><time>2026-04-26T11:26:59.931Z</time></trkpt><trkpt lat="39.6435953" lon="8.5528048"><ele>236.0</ele><time>2026-04-26T11:27:02.929Z</time></trkpt><trkpt lat="39.6436016" lon="8.5529098"><ele>236.0</ele><time>2026-04-26T11:27:05.929Z</time></trkpt><trkpt lat="39.6436268" lon="8.5530064"><ele>236.00000000000003</ele><time>2026-04-26T11:27:08.929Z</time></trkpt><trkpt lat="39.6436749" lon="8.5530988"><ele>236.0</ele><time>2026-04-26T11:27:11.93Z</time></trkpt><trkpt lat="39.6437314" lon="8.5531968"><ele>231.14285714285714</ele><time>2026-04-26T11:27:14.929Z</time></trkpt><trkpt lat="39.6437794" lon="8.5533003"><ele>226.2857142857143</ele><time>2026-04-26T11:27:17.93Z</time></trkpt><trkpt lat="39.6438083" lon="8.5533742"><ele>221.42857142857144</ele><time>2026-04-26T11:27:19.93Z</time></trkpt><trkpt lat="39.6438304" lon="8.5534514"><ele>216.57142857142856</ele><time>2026-04-26T11:27:21.929Z</time></trkpt><trkpt lat="39.643843" lon="8.5535332"><ele>211.71428571428572</ele><time>2026-04-26T11:27:23.929Z</time></trkpt><trkpt lat="39.6438559" lon="8.5536147"><ele>206.85714285714286</ele><time>2026-04-26T11:27:25.928Z</time></trkpt><trkpt lat="39.6438696" lon="8.553697"><ele>202.0</ele><time>2026-04-26T11:27:27.929Z</time></trkpt><trkpt lat="39.643878" lon="8.5537836"><ele>202.0</ele><time>2026-04-26T11:27:29.929Z</time></trkpt><trkpt lat="39.6438875" lon="8.5538704"><ele>202.0</ele><time>2026-04-26T11:27:31.929Z</time></trkpt><trkpt lat="39.6438963" lon="8.5539574"><ele>202.0</ele><time>2026-04-26T11:27:33.929Z</time></trkpt><trkpt lat="39.6439054" lon="8.5540432"><ele>202.0</ele><time>2026-04-26T11:27:35.929Z</time></trkpt><trkpt lat="39.6439137" lon="8.5541314"><ele>202.0</ele><time>2026-04-26T11:27:37.929Z</time></trkpt><trkpt lat="39.6439209" lon="8.5542169"><ele>202.0</ele><time>2026-04-26T11:27:39.929Z</time></trkpt><trkpt lat="39.6439277" lon="8.5542995"><ele>202.0</ele><time>2026-04-26T11:27:41.929Z</time></trkpt><trkpt lat="39.6439345" lon="8.5543815"><ele>202.0</ele><time>2026-04-26T11:27:43.93Z</time></trkpt><trkpt lat="39.6439385" lon="8.5544645"><ele>202.0</ele><time>2026-04-26T11:27:45.93Z</time></trkpt><trkpt lat="39.6439436" lon="8.5545499"><ele>202.0</ele><time>2026-04-26T11:27:47.929Z</time></trkpt><trkpt lat="39.6439459" lon="8.5546317"><ele>202.0</ele><time>2026-04-26T11:27:49.93Z</time></trkpt><trkpt lat="39.6439412" lon="8.5547134"><ele>202.0</ele><time>2026-04-26T11:27:51.929Z</time></trkpt><trkpt lat="39.6439346" lon="8.5547953"><ele>202.0</ele><time>2026-04-26T11:27:53.929Z</time></trkpt><trkpt lat="39.6439222" lon="8.554876"><ele>202.0</ele><time>2026-04-26T11:27:55.93Z</time></trkpt><trkpt lat="39.6439007" lon="8.5549919"><ele>200.66666666666666</ele><time>2026-04-26T11:27:58.929Z</time></trkpt><trkpt lat="39.6438652" lon="8.5551027"><ele>199.33333333333331</ele><time>2026-04-26T11:28:01.929Z</time></trkpt><trkpt lat="39.6438222" lon="8.5552026"><ele>198.0</ele><time>2026-04-26T11:28:04.931Z</time></trkpt><trkpt lat="39.6437723" lon="8.5552968"><ele>196.66666666666669</ele><time>2026-04-26T11:28:07.929Z</time></trkpt><trkpt lat="39.6437111" lon="8.55539"><ele>195.33333333333334</ele><time>2026-04-26T11:28:10.93Z</time></trkpt><trkpt lat="39.6436664" lon="8.5554514"><ele>194.0</ele><time>2026-04-26T11:28:12.93Z</time></trkpt><trkpt lat="39.6436122" lon="8.5555496"><ele>192.66666666666669</ele><time>2026-04-26T11:28:15.929Z</time></trkpt><trkpt lat="39.6435814" lon="8.5556526"><ele>191.33333333333334</ele><time>2026-04-26T11:28:18.928Z</time></trkpt><trkpt lat="39.64359" lon="8.5557651"><ele>190.0</ele><time>2026-04-26T11:28:21.929Z</time></trkpt><trkpt lat="39.6436188" lon="8.5558417"><ele>188.66666666666669</ele><time>2026-04-26T11:28:23.929Z</time></trkpt><trkpt lat="39.6436705" lon="8.5559394"><ele>187.33333333333334</ele><time>2026-04-26T11:28:26.929Z</time></trkpt><trkpt lat="39.6437351" lon="8.556021"><ele>186.0</ele><time>2026-04-26T11:28:29.929Z</time></trkpt><trkpt lat="39.643809" lon="8.5560934"><ele>186.0</ele><time>2026-04-26T11:28:32.928Z</time></trkpt><trkpt lat="39.6438888" lon="8.5561586"><ele>186.0</ele><time>2026-04-26T11:28:35.928Z</time></trkpt><trkpt lat="39.643947" lon="8.5561977"><ele>186.0</ele><time>2026-04-26T11:28:37.929Z</time></trkpt><trkpt lat="39.6440028" lon="8.5562377"><ele>186.0</ele><time>2026-04-26T11:28:39.928Z</time></trkpt><trkpt lat="39.6440855" lon="8.556296"><ele>186.0</ele><time>2026-04-26T11:28:42.929Z</time></trkpt><trkpt lat="39.6441656" lon="8.5563581"><ele>186.0</ele><time>2026-04-26T11:28:45.929Z</time></trkpt><trkpt lat="39.6442196" lon="8.5564012"><ele>188.60000000000002</ele><time>2026-04-26T11:28:47.93Z</time></trkpt><trkpt lat="39.6442964" lon="8.5564701"><ele>191.2</ele><time>2026-04-26T11:28:50.929Z</time></trkpt><trkpt lat="39.6443701" lon="8.5565467"><ele>193.8</ele><time>2026-04-26T11:28:53.928Z</time></trkpt><trkpt lat="39.6444438" lon="8.5566195"><ele>196.39999999999998</ele><time>2026-04-26T11:28:56.929Z</time></trkpt><trkpt lat="39.6445141" lon="8.5566926"><ele>199.0</ele><time>2026-04-26T11:28:59.928Z</time></trkpt><trkpt lat="39.6445787" lon="8.5567629"><ele>194.0</ele><time>2026-04-26T11:29:02.928Z</time></trkpt><trkpt lat="39.6446331" lon="8.5568541"><ele>189.0</ele><time>2026-04-26T11:29:05.929Z</time></trkpt><trkpt lat="39.6446711" lon="8.5569605"><ele>184.0</ele><time>2026-04-26T11:29:08.928Z</time></trkpt><trkpt lat="39.6447032" lon="8.5570701"><ele>179.0</ele><time>2026-04-26T11:29:11.928Z</time></trkpt><trkpt lat="39.6447189" lon="8.5571909"><ele>174.0</ele><time>2026-04-26T11:29:14.929Z</time></trkpt><trkpt lat="39.6447332" lon="8.5573017"><ele>174.0</ele><time>2026-04-26T11:29:17.929Z</time></trkpt><trkpt lat="39.6447409" lon="8.5573881"><ele>174.0</ele><time>2026-04-26T11:29:20.928Z</time></trkpt><trkpt lat="39.6447532" lon="8.5574741"><ele>174.0</ele><time>2026-04-26T11:29:23.928Z</time></trkpt><trkpt lat="39.644784" lon="8.5575669"><ele>174.0</ele><time>2026-04-26T11:29:26.929Z</time></trkpt><trkpt lat="39.6448358" lon="8.5576605"><ele>174.0</ele><time>2026-04-26T11:29:29.929Z</time></trkpt><trkpt lat="39.6449014" lon="8.5577429"><ele>174.0</ele><time>2026-04-26T11:29:32.928Z</time></trkpt><trkpt lat="39.6449645" lon="8.5578252"><ele>174.71428571428572</ele><time>2026-04-26T11:29:35.929Z</time></trkpt><trkpt lat="39.6450096" lon="8.5578824"><ele>175.42857142857144</ele><time>2026-04-26T11:29:37.928Z</time></trkpt><trkpt lat="39.6450532" lon="8.5579418"><ele>176.14285714285717</ele><time>2026-04-26T11:29:39.929Z</time></trkpt><trkpt lat="39.6450948" lon="8.5580042"><ele>176.85714285714286</ele><time>2026-04-26T11:29:41.928Z</time></trkpt><trkpt lat="39.6451366" lon="8.5580699"><ele>177.57142857142858</ele><time>2026-04-26T11:29:43.928Z</time></trkpt><trkpt lat="39.6451722" lon="8.558138"><ele>178.2857142857143</ele><time>2026-04-26T11:29:45.928Z</time></trkpt><trkpt lat="39.6452134" lon="8.5582419"><ele>179.0</ele><time>2026-04-26T11:29:48.929Z</time></trkpt><trkpt lat="39.6452405" lon="8.5583474"><ele>179.0</ele><time>2026-04-26T11:29:51.929Z</time></trkpt><trkpt lat="39.6452719" lon="8.5584415"><ele>179.0</ele><time>2026-04-26T11:29:54.928Z</time></trkpt><trkpt lat="39.6453137" lon="8.5585337"><ele>179.0</ele><time>2026-04-26T11:29:57.929Z</time></trkpt><trkpt lat="39.6453818" lon="8.5586105"><ele>179.0</ele><time>2026-04-26T11:30:00.928Z</time></trkpt><trkpt lat="39.6454377" lon="8.5586495"><ele>179.0</ele><time>2026-04-26T11:30:02.929Z</time></trkpt><trkpt lat="39.6455212" lon="8.5586928"><ele>179.0</ele><time>2026-04-26T11:30:05.929Z</time></trkpt><trkpt lat="39.6456072" lon="8.5587329"><ele>175.0</ele><time>2026-04-26T11:30:08.928Z</time></trkpt><trkpt lat="39.6456848" lon="8.5587903"><ele>171.0</ele><time>2026-04-26T11:30:11.93Z</time></trkpt><trkpt lat="39.6457487" lon="8.5588698"><ele>167.0</ele><time>2026-04-26T11:30:14.928Z</time></trkpt><trkpt lat="39.6457888" lon="8.5589365"><ele>163.0</ele><time>2026-04-26T11:30:16.928Z</time></trkpt><trkpt lat="39.6458232" lon="8.5590062"><ele>159.0</ele><time>2026-04-26T11:30:18.928Z</time></trkpt><trkpt lat="39.645872" lon="8.5591097"><ele>155.0</ele><time>2026-04-26T11:30:21.929Z</time></trkpt><trkpt lat="39.6459179" lon="8.5592115"><ele>155.0</ele><time>2026-04-26T11:30:24.929Z</time></trkpt><trkpt lat="39.6459563" lon="8.5593147"><ele>155.0</ele><time>2026-04-26T11:30:27.929Z</time></trkpt><trkpt lat="39.6459841" lon="8.5594173"><ele>155.0</ele><time>2026-04-26T11:30:30.929Z</time></trkpt><trkpt lat="39.6460005" lon="8.559515"><ele>155.0</ele><time>2026-04-26T11:30:33.929Z</time></trkpt><trkpt lat="39.6460255" lon="8.5596083"><ele>155.0</ele><time>2026-04-26T11:30:36.927Z</time></trkpt><trkpt lat="39.6460448" lon="8.5597141"><ele>155.0</ele><time>2026-04-26T11:30:39.929Z</time></trkpt><trkpt lat="39.6460781" lon="8.559822"><ele>155.42857142857144</ele><time>2026-04-26T11:30:42.929Z</time></trkpt><trkpt lat="39.6461181" lon="8.5599142"><ele>155.85714285714286</ele><time>2026-04-26T11:30:45.927Z</time></trkpt><trkpt lat="39.6461705" lon="8.5599831"><ele>156.28571428571428</ele><time>2026-04-26T11:30:48.928Z</time></trkpt><trkpt lat="39.6462129" lon="8.5600839"><ele>156.71428571428572</ele><time>2026-04-26T11:30:51.929Z</time></trkpt><trkpt lat="39.6462257" lon="8.5601644"><ele>157.14285714285714</ele><time>2026-04-26T11:30:53.929Z</time></trkpt><trkpt lat="39.6462352" lon="8.5602477"><ele>157.57142857142858</ele><time>2026-04-26T11:30:55.929Z</time></trkpt><trkpt lat="39.6462389" lon="8.5603327"><ele>158.0</ele><time>2026-04-26T11:30:57.927Z</time></trkpt><trkpt lat="39.6462401" lon="8.5604194"><ele>155.5</ele><time>2026-04-26T11:30:59.928Z</time></trkpt><trkpt lat="39.6462349" lon="8.5605049"><ele>153.0</ele><time>2026-04-26T11:31:01.929Z</time></trkpt><trkpt lat="39.6462304" lon="8.5606017"><ele>150.5</ele><time>2026-04-26T11:31:08.929Z</time></trkpt><trkpt lat="39.6462323" lon="8.5606866"><ele>148.0</ele><time>2026-04-26T11:31:11.929Z</time></trkpt><trkpt lat="39.6457586" lon="8.5532527"><ele>148.0</ele><time>2026-04-26T11:38:26.669Z</time></trkpt><trkpt lat="39.6458564" lon="8.5532778"><ele>148.0</ele><time>2026-04-26T11:52:03.926Z</time></trkpt><trkpt lat="39.6458537" lon="8.5531874"><ele>148.0</ele><time>2026-04-26T11:53:57.926Z</time></trkpt><trkpt lat="39.645879" lon="8.553104"><ele>148.0</ele><time>2026-04-26T11:54:11.926Z</time></trkpt><trkpt lat="39.6459416" lon="8.5530788"><ele>148.0</ele><time>2026-04-26T11:54:20.925Z</time></trkpt><trkpt lat="39.6459617" lon="8.5531596"><ele>148.0</ele><time>2026-04-26T11:54:31.926Z</time></trkpt><trkpt lat="39.6459595" lon="8.5532467"><ele>148.0</ele><time>2026-04-26T11:54:38.927Z</time></trkpt><trkpt lat="39.6459555" lon="8.5533394"><ele>148.0</ele><time>2026-04-26T11:54:46.926Z</time></trkpt><trkpt lat="39.6459334" lon="8.5534171"><ele>148.0</ele><time>2026-04-26T11:55:03.927Z</time></trkpt><trkpt lat="39.6459568" lon="8.5533353"><ele>148.0</ele><time>2026-04-26T11:55:32.926Z</time></trkpt><trkpt lat="39.6965422" lon="8.5160691"><ele>6.0</ele><time>2026-04-26T12:13:18.788Z</time></trkpt><trkpt lat="39.7296151" lon="8.5507175"><ele>6.0</ele><time>2026-04-26T12:25:13.642Z</time></trkpt><trkpt lat="39.7294716" lon="8.5519696"><ele>9.0</ele><time>2026-04-26T12:25:19.207Z</time></trkpt><trkpt lat="39.7295932" lon="8.5590155"><ele>8.0</ele><time>2026-04-26T12:25:25.601Z</time></trkpt><trkpt lat="39.7295087" lon="8.5582466"><ele>8.0</ele><time>2026-04-26T12:25:37.7Z</time></trkpt><trkpt lat="39.7297644" lon="8.5791372"><ele>8.0</ele><time>2026-04-26T12:27:15.454Z</time></trkpt><trkpt lat="39.7299458" lon="8.5792776"><ele>8.0</ele><time>2026-04-26T12:27:22.427Z</time></trkpt><trkpt lat="39.7508827" lon="8.6335633"><ele>8.0</ele><time>2026-04-26T12:33:22.622Z</time></trkpt><trkpt lat="39.7509431" lon="8.6337941"><ele>8.0</ele><time>2026-04-26T12:53:38.923Z</time></trkpt><trkpt lat="39.7507223" lon="8.6335707"><ele>5.0</ele><time>2026-04-26T12:59:09.734Z</time></trkpt><trkpt lat="39.7405811" lon="8.6066827"><ele>6.0</ele><time>2026-04-26T13:10:14.79Z</time></trkpt><trkpt lat="39.7393935" lon="8.6036396"><ele>10.0</ele><time>2026-04-26T13:10:30.792Z</time></trkpt><trkpt lat="39.7606887" lon="8.5835113"><ele>8.0</ele><time>2026-04-26T13:14:29.8Z</time></trkpt><trkpt lat="39.7697739" lon="8.5809098"><ele>8.0</ele><time>2026-04-26T13:15:37.669Z</time></trkpt><trkpt lat="39.7712902" lon="8.5780147"><ele>8.0</ele><time>2026-04-26T13:16:45.071Z</time></trkpt><trkpt lat="39.771368" lon="8.5782627"><ele>8.0</ele><time>2026-04-26T13:20:07.222Z</time></trkpt><trkpt lat="39.7713233" lon="8.5781768"><ele>8.0</ele><time>2026-04-26T13:24:53.921Z</time></trkpt><trkpt lat="39.7712453" lon="8.5781183"><ele>8.0</ele><time>2026-04-26T13:24:56.92Z</time></trkpt></trkseg></trk></gpx>